createdAt,value
2018-10-18T00:01:35.821Z,11.93
2018-10-18T00:04:06.660Z,13.20
2018-10-18T00:06:37.447Z,12.67
2018-10-18T00:09:11.496Z,13.20
2018-10-18T00:11:42.231Z,12.83
2018-10-18T00:14:12.788Z,13.60
2018-10-18T00:16:43.574Z,13.60
2018-10-18T00:19:14.507Z,13.23
2018-10-18T00:21:45.276Z,12.63
2018-10-18T00:24:16.233Z,12.30
2018-10-18T00:26:47.146Z,13.70
2018-10-18T00:29:18.263Z,13.50
2018-10-18T00:31:49.512Z,13.67
2018-10-18T00:34:20.346Z,15.73
2018-10-18T00:36:52.932Z,13.67
2018-10-18T00:39:23.694Z,14.13
2018-10-18T00:41:54.780Z,14.33
2018-10-18T00:44:25.715Z,15.50
2018-10-18T00:46:56.501Z,14.80
2018-10-18T00:49:27.419Z,13.90
2018-10-18T00:51:58.130Z,13.93
2018-10-18T00:54:28.834Z,14.90
2018-10-18T00:56:59.585Z,14.10
2018-10-18T00:59:30.482Z,16.40
2018-10-18T01:02:01.234Z,15.77
2018-10-18T01:04:32.215Z,16.97
2018-10-18T01:07:03.138Z,15.63
2018-10-18T01:09:33.868Z,14.37
2018-10-18T01:12:04.627Z,16.07
2018-10-18T01:14:35.365Z,15.13
2018-10-18T01:17:06.540Z,15.10
2018-10-18T01:19:40.400Z,14.70
2018-10-18T01:22:11.462Z,15.57
2018-10-18T01:24:42.171Z,15.03
2018-10-18T01:27:12.938Z,15.10
2018-10-18T01:29:43.866Z,15.63
2018-10-18T01:32:15.034Z,15.83
2018-10-18T01:34:45.891Z,15.43
2018-10-18T01:37:16.582Z,16.20
2018-10-18T01:39:47.544Z,20.43
2018-10-18T01:42:24.922Z,22.97
2018-10-18T01:44:56.007Z,23.97
2018-10-18T01:47:26.924Z,24.87
2018-10-18T01:49:57.852Z,18.40
2018-10-18T01:52:28.643Z,15.33
2018-10-18T01:54:59.348Z,15.93
2018-10-18T01:57:30.117Z,18.20
2018-10-18T02:00:01.780Z,16.40
2018-10-18T02:02:32.601Z,16.03
2018-10-18T02:05:03.482Z,14.57
2018-10-18T02:07:34.132Z,15.97
2018-10-18T02:10:04.813Z,15.23
2018-10-18T02:12:35.506Z,14.50
2018-10-18T02:15:06.629Z,14.70
2018-10-18T02:17:37.078Z,15.10
2018-10-18T02:20:09.240Z,18.63
2018-10-18T02:22:40.421Z,16.30
2018-10-18T02:25:14.204Z,15.00
2018-10-18T02:27:44.830Z,15.17
2018-10-18T02:30:15.819Z,15.33
2018-10-18T02:32:46.613Z,16.80
2018-10-18T02:35:17.353Z,16.70
2018-10-18T02:37:48.013Z,17.13
2018-10-18T02:40:18.687Z,16.17
2018-10-18T02:42:49.325Z,18.53
2018-10-18T02:45:19.914Z,18.37
2018-10-18T02:47:50.665Z,18.43
2018-10-18T02:50:21.319Z,15.67
2018-10-18T02:52:52.101Z,18.07
2018-10-18T02:55:22.849Z,20.37
2018-10-18T02:57:53.742Z,17.20
2018-10-18T03:00:24.495Z,23.20
2018-10-18T03:02:55.532Z,18.93
2018-10-18T03:05:26.343Z,18.07
2018-10-18T03:07:57.256Z,19.30
2018-10-18T03:10:28.159Z,19.33
2018-10-18T03:12:58.992Z,19.77
2018-10-18T03:15:29.941Z,15.13
2018-10-18T03:18:01.103Z,17.53
2018-10-18T03:20:32.665Z,16.43
2018-10-18T03:23:03.388Z,13.63
2018-10-18T03:25:35.037Z,13.37
2018-10-18T03:28:05.824Z,16.40
2018-10-18T03:30:36.576Z,17.53
2018-10-18T03:33:07.495Z,15.80
2018-10-18T03:35:38.283Z,18.60
2018-10-18T03:41:13.102Z,22.07
2018-10-18T03:44:00.217Z,14.20
2018-10-18T03:46:31.259Z,15.00
2018-10-18T03:49:03.475Z,17.43
2018-10-18T03:51:34.705Z,14.77
2018-10-18T03:54:18.042Z,16.00
2018-10-18T03:56:51.394Z,16.37
2018-10-18T03:59:22.330Z,17.53
2018-10-18T04:01:53.150Z,15.17
2018-10-18T04:04:23.857Z,13.23
2018-10-18T04:06:55.609Z,15.93
2018-10-18T04:09:43.656Z,23.67
2018-10-18T04:12:14.294Z,23.77
2018-10-18T04:14:45.156Z,24.63
2018-10-18T04:17:16.917Z,26.07
2018-10-18T04:19:54.480Z,18.13
2018-10-18T04:22:25.305Z,19.77
2018-10-18T04:24:57.024Z,21.37
2018-10-18T04:27:27.930Z,22.47
2018-10-18T04:29:58.734Z,23.27
2018-10-18T04:32:29.449Z,24.57
2018-10-18T04:35:00.326Z,23.73
2018-10-18T04:37:31.188Z,30.57
2018-10-18T04:40:02.036Z,30.03
2018-10-18T04:42:59.740Z,29.43
2018-10-18T04:45:30.527Z,26.40
2018-10-18T04:48:01.405Z,27.13
2018-10-18T04:50:33.152Z,24.23
2018-10-18T04:53:04.322Z,25.13
2018-10-18T04:55:35.239Z,25.00
2018-10-18T04:58:08.244Z,28.30
2018-10-18T05:00:39.227Z,30.60
2018-10-18T05:03:10.317Z,30.13
2018-10-18T05:05:59.310Z,29.40
2018-10-18T05:08:30.723Z,31.83
2018-10-18T05:11:01.668Z,28.60
2018-10-18T05:13:32.305Z,30.60
2018-10-18T05:16:03.479Z,31.43
2018-10-18T05:18:34.463Z,26.97
2018-10-18T05:21:05.339Z,25.37
2018-10-18T05:23:36.234Z,23.17
2018-10-18T05:26:07.363Z,23.27
2018-10-18T05:28:40.121Z,22.80
2018-10-18T05:31:11.206Z,23.27
2018-10-18T05:33:42.116Z,23.73
2018-10-18T05:36:12.948Z,24.37
2018-10-18T05:38:43.936Z,25.23
2018-10-18T05:41:14.980Z,20.80
2018-10-18T05:43:46.361Z,23.97
2018-10-18T05:46:17.292Z,18.67
2018-10-18T05:48:50.024Z,20.17
2018-10-18T05:51:20.797Z,20.70
2018-10-18T05:53:52.609Z,21.27
2018-10-18T05:56:24.093Z,22.37
2018-10-18T05:58:55.330Z,27.00
2018-10-18T06:01:26.235Z,23.63
2018-10-18T06:03:57.146Z,17.33
2018-10-18T06:06:27.941Z,16.23
2018-10-18T06:08:58.776Z,15.90
2018-10-18T06:11:31.898Z,18.80
2018-10-18T06:14:02.901Z,16.80
2018-10-18T06:16:34.058Z,18.33
2018-10-18T06:19:05.012Z,13.40
2018-10-18T06:21:35.941Z,19.50
2018-10-18T06:24:07.743Z,18.70
2018-10-18T06:26:38.727Z,15.67
2018-10-18T06:29:09.662Z,16.80
2018-10-18T06:31:42.484Z,18.63
2018-10-18T06:34:13.614Z,14.87
2018-10-18T06:36:44.858Z,17.13
2018-10-18T06:39:16.773Z,13.43
2018-10-18T06:41:48.058Z,13.37
2018-10-18T06:44:18.959Z,16.47
2018-10-18T06:46:50.431Z,13.20
2018-10-18T06:49:21.199Z,13.50
2018-10-18T06:51:52.506Z,13.90
2018-10-18T06:54:23.276Z,11.93
2018-10-18T06:56:54.086Z,12.70
2018-10-18T06:59:24.822Z,15.67
2018-10-18T07:01:55.744Z,15.00
2018-10-18T07:04:26.865Z,13.43
2018-10-18T07:06:57.572Z,12.73
2018-10-18T07:09:28.600Z,13.80
2018-10-18T07:11:59.588Z,13.40
2018-10-18T07:14:30.736Z,13.17
2018-10-18T07:17:01.507Z,14.47
2018-10-18T07:19:32.245Z,13.77
2018-10-18T07:22:03.369Z,14.50
2018-10-18T07:24:35.049Z,15.60
2018-10-18T07:27:06.948Z,11.77
2018-10-18T07:29:37.994Z,11.77
2018-10-18T07:32:09.310Z,12.57
2018-10-18T07:34:40.126Z,11.20
2018-10-18T07:37:11.145Z,11.23
2018-10-18T07:39:41.987Z,11.37
2018-10-18T07:42:12.880Z,11.70
2018-10-18T07:44:43.913Z,10.80
2018-10-18T07:47:15.287Z,11.53
2018-10-18T07:49:46.647Z,10.93
2018-10-18T07:52:17.640Z,10.90
2018-10-18T07:54:48.630Z,11.07
2018-10-18T07:57:19.608Z,10.73
2018-10-18T07:59:50.665Z,10.63
2018-10-18T08:02:21.657Z,10.53
2018-10-18T08:04:52.416Z,13.63
2018-10-18T08:07:23.482Z,11.43
2018-10-18T08:09:55.346Z,11.50
2018-10-18T08:12:26.505Z,9.87
2018-10-18T08:14:57.336Z,10.77
2018-10-18T08:17:28.490Z,11.80
2018-10-18T08:19:59.475Z,9.77
2018-10-18T08:22:30.652Z,9.03
2018-10-18T08:25:01.829Z,9.57
2018-10-18T08:27:32.700Z,9.43
2018-10-18T08:30:03.834Z,9.13
2018-10-18T08:32:35.091Z,9.03
2018-10-18T08:35:06.619Z,9.33
2018-10-18T08:37:37.900Z,9.40
2018-10-18T08:40:10.337Z,8.30
2018-10-18T08:42:41.921Z,6.63
2018-10-18T08:45:13.193Z,7.27
2018-10-18T08:47:44.814Z,6.90
2018-10-18T08:50:16.026Z,6.90
2018-10-18T08:52:48.023Z,6.80
2018-10-18T08:55:19.895Z,6.40
2018-10-18T08:57:51.264Z,6.90
2018-10-18T09:00:22.201Z,6.63
2018-10-18T09:02:53.673Z,6.00
2018-10-18T09:05:25.200Z,6.00
2018-10-18T09:07:56.407Z,6.80
2018-10-18T09:10:27.736Z,6.40
2018-10-18T09:12:59.003Z,6.57
2018-10-18T09:15:30.180Z,6.00
2018-10-18T09:18:01.269Z,5.80
2018-10-18T09:20:32.123Z,7.63
2018-10-18T09:23:03.492Z,5.57
2018-10-18T09:25:35.826Z,7.53
2018-10-18T09:28:06.918Z,6.60
2018-10-18T09:30:38.165Z,9.27
2018-10-18T09:33:09.312Z,6.90
2018-10-18T09:35:40.452Z,6.47
2018-10-18T09:38:11.494Z,6.23
2018-10-18T09:40:42.514Z,6.47
2018-10-18T09:43:13.402Z,6.50
2018-10-18T09:45:44.302Z,8.00
2018-10-18T09:48:15.647Z,5.83
2018-10-18T09:50:46.612Z,5.77
2018-10-18T09:53:17.710Z,6.23
2018-10-18T09:55:48.988Z,6.60
2018-10-18T09:58:20.249Z,7.50
2018-10-18T10:00:56.258Z,5.63
2018-10-18T10:03:27.189Z,8.10
2018-10-18T10:05:58.022Z,6.33
2018-10-18T10:08:28.913Z,6.37
2018-10-18T10:10:59.895Z,6.67
2018-10-18T10:13:31.153Z,7.33
2018-10-18T10:16:02.289Z,6.13
2018-10-18T10:18:33.627Z,5.70
2018-10-18T10:21:04.450Z,5.90
2018-10-18T10:23:35.344Z,5.40
2018-10-18T10:26:06.294Z,7.73
2018-10-18T10:28:37.767Z,5.93
2018-10-18T10:31:09.341Z,7.20
2018-10-18T10:33:40.295Z,8.90
2018-10-18T10:36:10.998Z,10.40
2018-10-18T10:38:41.854Z,6.20
2018-10-18T10:41:12.870Z,5.77
2018-10-18T10:43:44.295Z,7.73
2018-10-18T10:46:15.512Z,4.83
2018-10-18T10:48:46.413Z,6.57
2018-10-18T10:51:17.577Z,7.80
2018-10-18T10:53:48.694Z,4.97
2018-10-18T10:56:19.952Z,5.90
2018-10-18T10:58:51.273Z,8.43
2018-10-18T11:01:23.967Z,5.60
2018-10-18T11:03:57.471Z,5.30
2018-10-18T11:06:29.338Z,5.10
2018-10-18T11:09:00.575Z,5.83
2018-10-18T11:11:32.013Z,5.43
2018-10-18T11:14:03.113Z,5.27
2018-10-18T11:16:34.184Z,4.30
2018-10-18T11:19:05.764Z,3.70
2018-10-18T11:21:36.870Z,4.28
2018-10-18T11:24:08.356Z,4.92
2018-10-18T11:26:39.731Z,6.40
2018-10-18T11:29:11.162Z,3.00
2018-10-18T11:31:44.110Z,2.77
2018-10-18T11:34:16.488Z,3.00
2018-10-18T11:36:47.498Z,3.80
2018-10-18T11:39:18.402Z,3.77
2018-10-18T11:41:49.321Z,6.03
2018-10-18T11:44:24.398Z,3.20
2018-10-18T11:46:55.236Z,6.57
2018-10-18T11:49:26.376Z,3.93
2018-10-18T11:51:57.402Z,3.53
2018-10-18T11:54:28.456Z,3.40
2018-10-18T11:57:00.426Z,3.40
2018-10-18T11:59:31.329Z,4.03
2018-10-18T12:02:02.478Z,3.93
2018-10-18T12:04:33.287Z,7.33
2018-10-18T12:07:04.178Z,5.27
2018-10-18T12:09:35.026Z,5.37
2018-10-18T12:12:06.007Z,4.30
2018-10-18T12:14:37.086Z,4.10
2018-10-18T12:17:08.237Z,5.47
2018-10-18T12:19:39.183Z,4.78
2018-10-18T12:22:10.039Z,5.70
2018-10-18T12:24:41.025Z,4.78
2018-10-18T12:27:12.152Z,4.28
2018-10-18T12:29:44.072Z,7.45
2018-10-18T12:32:15.150Z,4.08
2018-10-18T12:34:46.327Z,4.60
2018-10-18T12:37:17.580Z,5.87
2018-10-18T12:39:48.928Z,4.17
2018-10-18T12:42:19.989Z,4.53
2018-10-18T12:44:51.272Z,5.47
2018-10-18T12:47:22.371Z,4.30
2018-10-18T12:49:53.601Z,4.17
2018-10-18T12:52:25.182Z,4.10
2018-10-18T12:54:56.350Z,4.03
2018-10-18T12:57:27.439Z,4.85
2018-10-18T12:59:58.918Z,4.53
2018-10-18T13:02:29.953Z,4.65
2018-10-18T13:05:01.136Z,5.40
2018-10-18T13:07:30.869Z,4.20
2018-10-18T13:10:02.646Z,3.92
2018-10-18T13:12:34.411Z,4.00
2018-10-18T13:15:05.603Z,4.67
2018-10-18T13:17:36.696Z,5.40
2018-10-18T13:20:08.970Z,3.80
2018-10-18T13:22:40.812Z,5.08
2018-10-18T13:25:12.659Z,6.67
2018-10-18T13:27:43.672Z,3.60
2018-10-18T13:30:14.764Z,4.50
2018-10-18T13:32:46.077Z,4.10
2018-10-18T13:35:17.683Z,3.90
2018-10-18T13:37:48.568Z,4.17
2018-10-18T13:40:19.949Z,5.07
2018-10-18T13:42:50.905Z,4.23
2018-10-18T13:45:21.991Z,3.63
2018-10-18T13:47:53.827Z,7.03
2018-10-18T13:50:26.482Z,4.23
2018-10-18T13:52:57.837Z,4.30
2018-10-18T13:55:29.968Z,7.27
2018-10-18T13:58:01.000Z,4.20
2018-10-18T14:00:32.755Z,5.40
2018-10-18T14:03:03.834Z,5.47
2018-10-18T14:05:34.800Z,3.70
2018-10-18T14:08:06.177Z,4.03
2018-10-18T14:10:37.199Z,6.50
2018-10-18T14:13:08.113Z,3.93
2018-10-18T14:15:39.895Z,5.70
2018-10-18T14:18:10.740Z,3.77
2018-10-18T14:20:42.582Z,5.67
2018-10-18T14:23:13.714Z,3.40
2018-10-18T14:25:44.572Z,5.17
2018-10-18T14:28:16.004Z,3.90
2018-10-18T14:30:46.899Z,4.37
2018-10-18T14:33:18.250Z,3.60
2018-10-18T14:35:49.750Z,3.53
2018-10-18T14:38:22.201Z,4.10
2018-10-18T14:40:53.359Z,4.50
2018-10-18T14:43:24.968Z,3.47
2018-10-18T14:45:56.850Z,3.50
2018-10-18T14:48:27.824Z,6.90
2018-10-18T14:50:59.255Z,6.37
2018-10-18T14:53:30.183Z,4.10
2018-10-18T14:56:00.870Z,7.50
2018-10-18T14:58:32.801Z,4.10
2018-10-18T15:01:03.786Z,3.80
2018-10-18T15:03:34.614Z,3.93
2018-10-18T15:06:06.103Z,3.87
2018-10-18T15:08:37.034Z,3.37
2018-10-18T15:11:09.161Z,3.53
2018-10-18T15:13:40.254Z,5.23
2018-10-18T15:16:11.171Z,4.60
2018-10-18T15:18:44.188Z,7.83
2018-10-18T15:21:16.464Z,6.50
2018-10-18T15:23:47.725Z,5.37
2018-10-18T15:26:18.922Z,4.37
2018-10-18T15:28:50.384Z,4.77
2018-10-18T15:31:22.026Z,5.50
2018-10-18T15:33:53.281Z,6.23
2018-10-18T15:36:24.071Z,5.00
2018-10-18T15:38:55.206Z,6.33
2018-10-18T15:41:26.028Z,5.97
2018-10-18T15:43:56.900Z,8.30
2018-10-18T15:46:27.795Z,7.17
2018-10-18T15:48:58.442Z,5.73
2018-10-18T15:51:29.394Z,5.90
2018-10-18T15:54:00.762Z,5.63
2018-10-18T15:56:31.729Z,5.60
2018-10-18T15:59:02.460Z,7.37
2018-10-18T16:01:33.220Z,6.57
2018-10-18T16:04:04.207Z,5.70
2018-10-18T16:06:35.027Z,6.83
2018-10-18T16:09:09.578Z,6.13
2018-10-18T16:11:40.778Z,9.70
2018-10-18T16:14:11.832Z,6.20
2018-10-18T16:16:42.662Z,7.53
2018-10-18T16:19:13.391Z,6.73
2018-10-18T16:21:44.570Z,7.27
2018-10-18T16:24:15.621Z,7.83
2018-10-18T16:26:46.343Z,8.07
2018-10-18T16:29:17.515Z,7.33
2018-10-18T16:31:49.176Z,7.17
2018-10-18T16:34:20.260Z,7.83
2018-10-18T16:36:51.368Z,7.40
2018-10-18T16:39:22.452Z,7.70
2018-10-18T16:41:53.357Z,9.90
2018-10-18T16:44:24.535Z,9.57
2018-10-18T16:46:55.654Z,9.60
2018-10-18T16:49:26.775Z,9.37
2018-10-18T16:51:58.982Z,10.87
2018-10-18T16:54:31.026Z,7.47
2018-10-18T16:57:01.939Z,11.33
2018-10-18T16:59:33.311Z,7.73
2018-10-18T17:02:04.656Z,8.17
2018-10-18T17:04:35.390Z,8.93
2018-10-18T17:07:06.633Z,32.87
2018-10-18T17:09:37.916Z,15.33
2018-10-18T17:12:09.400Z,9.53
2018-10-18T17:14:40.512Z,10.70
2018-10-18T17:17:12.043Z,23.23
2018-10-18T17:19:43.887Z,11.97
2018-10-18T17:22:14.978Z,29.47
2018-10-18T17:24:45.871Z,32.03
2018-10-18T17:27:17.514Z,14.73
2018-10-18T17:29:48.424Z,12.27
2018-10-18T17:32:19.644Z,12.17
2018-10-18T17:34:50.576Z,8.47
2018-10-18T17:37:21.810Z,10.40
2018-10-18T17:39:52.954Z,9.13
2018-10-18T17:42:24.097Z,14.20
2018-10-18T17:44:55.275Z,8.60
2018-10-18T17:47:27.884Z,9.57
2018-10-18T17:49:59.412Z,12.77
2018-10-18T17:52:31.787Z,11.23
2018-10-18T17:55:04.069Z,13.00
2018-10-18T17:57:34.996Z,10.10
2018-10-18T18:00:11.097Z,9.63
2018-10-18T18:02:42.354Z,11.83
2018-10-18T18:05:14.522Z,11.57
2018-10-18T18:07:45.805Z,17.10
2018-10-18T18:10:18.773Z,17.57
2018-10-18T18:12:49.817Z,13.17
2018-10-18T18:15:20.849Z,16.53
2018-10-18T18:17:52.007Z,12.37
2018-10-18T18:20:23.261Z,17.10
2018-10-18T18:22:54.664Z,12.27
2018-10-18T18:25:25.940Z,14.17
2018-10-18T18:27:58.335Z,15.23
2018-10-18T18:30:29.598Z,11.53
2018-10-18T18:33:00.936Z,12.10
2018-10-18T18:35:32.795Z,14.43
2018-10-18T18:38:05.842Z,15.00
2018-10-18T18:40:37.578Z,14.73
2018-10-18T18:43:08.912Z,15.10
2018-10-18T18:45:44.843Z,13.37
2018-10-18T18:48:20.923Z,15.10
2018-10-18T18:51:00.087Z,16.57
2018-10-18T18:53:40.534Z,13.83
2018-10-18T18:56:16.732Z,13.37
2018-10-18T18:58:48.712Z,11.70
2018-10-18T19:01:27.414Z,13.37
2018-10-18T19:04:00.904Z,11.90
2018-10-18T19:06:34.964Z,20.13
2018-10-18T19:09:11.949Z,14.10
2018-10-18T19:11:44.178Z,14.33
2018-10-18T19:14:17.936Z,16.07
2018-10-18T19:16:52.205Z,14.87
2018-10-18T19:19:26.018Z,14.80
2018-10-18T19:21:59.910Z,14.60
2018-10-18T19:24:32.364Z,13.90
2018-10-18T19:27:04.386Z,16.27
2018-10-18T19:29:38.170Z,16.37
2018-10-18T19:32:09.752Z,14.73
2018-10-18T19:34:43.164Z,12.57
2018-10-18T19:37:15.292Z,12.97
2018-10-18T19:39:48.900Z,16.73
2018-10-18T19:42:20.354Z,14.67
2018-10-18T19:44:52.167Z,12.63
2018-10-18T19:47:23.840Z,17.97
2018-10-18T19:49:55.680Z,16.30
2018-10-18T19:52:27.156Z,15.87
2018-10-18T19:54:58.187Z,21.80
2018-10-18T19:57:30.771Z,15.47
2018-10-18T20:00:02.417Z,15.97
2018-10-18T20:02:33.818Z,14.73
2018-10-18T20:05:05.661Z,16.67
2018-10-18T20:07:37.271Z,19.90
2018-10-18T20:10:09.742Z,14.97
2018-10-18T20:12:41.341Z,15.17
2018-10-18T20:15:13.732Z,14.73
2018-10-18T20:17:45.907Z,15.50
2018-10-18T20:20:17.962Z,15.30
2018-10-18T20:22:50.870Z,16.07
2018-10-18T20:25:22.201Z,20.27
2018-10-18T20:27:53.587Z,15.20
2018-10-18T20:30:26.117Z,16.47
2018-10-18T20:32:58.505Z,14.57
2018-10-18T20:35:30.726Z,15.53
2018-10-18T20:38:03.507Z,17.67
2018-10-18T20:40:35.010Z,15.73
2018-10-18T20:43:06.301Z,16.67
2018-10-18T20:45:37.756Z,14.77
2018-10-18T20:48:09.404Z,16.13
2018-10-18T20:50:40.868Z,17.73
2018-10-18T20:53:14.175Z,19.00
2018-10-18T20:55:45.783Z,18.27
2018-10-18T20:58:17.656Z,16.77
2018-10-18T21:00:49.157Z,18.07
2018-10-18T21:03:22.042Z,17.23
2018-10-18T21:05:53.272Z,20.17
2018-10-18T21:08:29.837Z,18.17
2018-10-18T21:11:02.845Z,19.83
2018-10-18T21:13:34.012Z,17.70
2018-10-18T21:16:10.410Z,17.03
2018-10-18T21:18:42.140Z,18.70
2018-10-18T21:21:13.523Z,19.33
2018-10-18T21:23:44.820Z,21.80
2018-10-18T21:26:23.332Z,21.40
2018-10-18T21:28:54.762Z,19.53
2018-10-18T21:31:25.710Z,18.33
2018-10-18T21:33:57.690Z,18.87
2018-10-18T21:36:28.824Z,19.43
2018-10-18T21:39:00.071Z,21.83
2018-10-18T21:41:31.092Z,18.37
2018-10-18T21:44:02.153Z,18.73
2018-10-18T21:46:33.130Z,19.17
2018-10-18T21:49:05.090Z,19.10
2018-10-18T21:51:36.038Z,18.07
2018-10-18T21:54:07.996Z,18.83
2018-10-18T21:56:38.853Z,18.70
2018-10-18T21:59:09.902Z,16.67
2018-10-18T22:01:43.740Z,15.33
2018-10-18T22:04:14.811Z,16.57
2018-10-18T22:06:46.084Z,18.10
2018-10-18T22:09:17.209Z,16.33
2018-10-18T22:11:48.078Z,18.00
2018-10-18T22:14:19.273Z,15.67
2018-10-18T22:16:50.886Z,25.00
2018-10-18T22:19:21.680Z,16.83
2018-10-18T22:21:52.380Z,15.83
2018-10-18T22:24:23.251Z,19.87
2018-10-18T22:26:54.135Z,17.17
2018-10-18T22:29:24.987Z,19.30
2018-10-18T22:31:55.868Z,17.67
2018-10-18T22:34:26.609Z,21.83
2018-10-18T22:36:57.500Z,21.50
2018-10-18T22:39:28.434Z,21.33
2018-10-18T22:41:59.201Z,18.33
2018-10-18T22:44:30.085Z,18.30
2018-10-18T22:47:01.252Z,19.73
2018-10-18T22:49:32.103Z,18.07
2018-10-18T22:52:03.495Z,16.73
2018-10-18T22:54:34.209Z,18.80
2018-10-18T22:57:05.171Z,22.57
2018-10-18T22:59:36.008Z,20.43
2018-10-18T23:02:13.368Z,23.90
2018-10-18T23:04:44.606Z,27.03
2018-10-18T23:07:15.541Z,26.60
2018-10-18T23:09:46.496Z,26.67
2018-10-18T23:12:17.557Z,21.23
2018-10-18T23:14:48.621Z,19.70
2018-10-18T23:17:19.746Z,21.47
2018-10-18T23:19:50.714Z,20.23
2018-10-18T23:22:21.574Z,25.60
2018-10-18T23:24:53.434Z,21.20
2018-10-18T23:27:23.348Z,20.53
2018-10-18T23:29:54.575Z,19.60
2018-10-18T23:32:25.378Z,20.27
2018-10-18T23:34:56.207Z,18.87
2018-10-18T23:37:26.993Z,23.43
2018-10-18T23:39:57.724Z,19.17
2018-10-18T23:42:28.515Z,24.87
2018-10-18T23:44:59.158Z,19.37
2018-10-18T23:47:29.761Z,21.60
2018-10-18T23:50:00.247Z,24.20
2018-10-18T23:52:31.083Z,23.17
2018-10-18T23:55:01.905Z,23.97
2018-10-18T23:57:32.620Z,47.23
